GOOY/DKR METAR and TAF weather

Enter ICAO airport designator
Station Type Date Time Source
GOOY METAR 2021/04/14 20:00 UTC NOAA

GOOY 142000Z 34012KT 7000 NSC 22/17 Q1011


Station Type Date Time Source
GOOY Decoded METAR 2021/04/14 20:00 UTC NOAA

Dakar / Yoff, Senegal (GOOY) 14-44N 017-30W 24M
Apr 14, 2021 - 04:00 PM EDT / 2021.04.14 2000 UTC
Wind: from the NNW (340 degrees) at 14 MPH (12 KT):0
Visibility: 4 mile(s):0
Temperature: 71 F (22 C)
Dew Point: 62 F (17 C)
Relative Humidity: 73%
Pressure (altimeter): 29.85 in. Hg (1011 hPa)
ob: GOOY 142000Z 34012KT 7000 NSC 22/17 Q1011
cycle: 20

Station Type Date Time Source
GOOY TAF 2021/04/14 18:24 UTC NOAA

TAF GOOY 141730Z 1418/1524 36013KT CAVOK

Example: see airport list